Terminal Aerodrome Forecast
Issued by NWS

Home | Current Version | Previous Version | Text Only | Print | Product List | Glossary On
Versions: 1 2 3 4 5 6 7 8 9 10 11 12 13 14 15
000
FTUS44 KLIX 201100
TAFGPT
TAF
KGPT 201135Z 2012/2112 01010KT P6SM OVC007
     FM202300 03008KT P6SM BKN010
     FM210300 03009KT P6SM BKN015
     FM210400 04009KT P6SM BKN008=

USA.gov is the U.S. government's official web portal to all federal, state and local government web resources and services.